Time;durP1;ratioP1;P1;durP2;ratioP2;P2;SDS_P1;SDS_P2;PMS_P1;PMS_P2;Temp;Humidity;BMP_temperature;BMP_pressure;BME280_temperature;BME280_humidity;BME280_pressure;Samples;Min_cycle;Max_cycle;Signal;HPM_P1;HPM_P2
2023/02/06 00:07:49;;;;;;;31.3;17.4;;;;;;;-3.4;81;100960;;;;
2023/02/06 00:18:49;;;;;;;31.3;17.4;;;;;;;-3.3;81;100960;;;;
2023/02/06 00:28:49;;;;;;;31.3;17.4;;;;;;;-3.3;80.9;100950;;;;
2023/02/06 00:38:49;;;;;;;31;18.6;;;;;;;-3.3;81;100950;;;;
2023/02/06 00:48:49;;;;;;;31;18.6;;;;;;;-3.3;81.1;100940;;;;
2023/02/06 00:59:49;;;;;;;31;18.6;;;;;;;-3.4;81.5;100930;;;;
2023/02/06 01:10:49;;;;;;;31.7;18.5;;;;;;;-3.2;81.4;100940;;;;
2023/02/06 01:20:49;;;;;;;31.7;18.5;;;;;;;-3.3;81.1;100920;;;;
2023/02/06 01:30:49;;;;;;;31.7;18.5;;;;;;;-3.3;81.4;100910;;;;
2023/02/06 01:41:49;;;;;;;30.2;17.3;;;;;;;-3.5;82.1;100900;;;;
2023/02/06 01:52:49;;;;;;;30.2;17.3;;;;;;;-3.5;82.3;100900;;;;
2023/02/06 02:02:49;;;;;;;28.5;16.6;;;;;;;-3.4;82;100890;;;;
2023/02/06 02:13:49;;;;;;;28.5;16.6;;;;;;;-3.5;81.6;100880;;;;
2023/02/06 02:24:49;;;;;;;28.5;16.6;;;;;;;-3.5;81.6;100870;;;;
2023/02/06 02:34:49;;;;;;;28.1;17.1;;;;;;;-3.5;81.7;100870;;;;
2023/02/06 02:44:49;;;;;;;28.1;17.1;;;;;;;-3.5;81.7;100870;;;;
2023/02/06 02:55:49;;;;;;;28.1;17.1;;;;;;;-3.7;82.1;100850;;;;
2023/02/06 03:05:49;;;;;;;31.2;20.8;;;;;;;-3.8;82.1;100840;;;;
2023/02/06 03:15:49;;;;;;;31.2;20.8;;;;;;;-3.6;82;100850;;;;
2023/02/06 03:26:49;;;;;;;31.2;20.8;;;;;;;-3.7;82.1;100830;;;;
2023/02/06 03:37:49;;;;;;;31.1;17.6;;;;;;;-3.8;82.3;100840;;;;
2023/02/06 03:47:49;;;;;;;31.1;17.6;;;;;;;-3.7;82.1;100860;;;;
2023/02/06 03:57:49;;;;;;;31.1;17.6;;;;;;;-3.8;82;100870;;;;
2023/02/06 04:08:49;;;;;;;26.7;16.7;;;;;;;-3.8;82.2;100860;;;;
2023/02/06 04:18:50;;;;;;;26.7;16.7;;;;;;;-3.8;82;100840;;;;
2023/02/06 04:29:49;;;;;;;26.7;16.7;;;;;;;-3.7;81.8;100830;;;;
2023/02/06 04:39:49;;;;;;;26.3;16;;;;;;;-3.7;81.5;100840;;;;
2023/02/06 04:50:49;;;;;;;26.3;16;;;;;;;-3.6;81.4;100860;;;;
2023/02/06 05:01:49;;;;;;;26.3;16;;;;;;;-3.6;81.4;100860;;;;
2023/02/06 05:12:49;;;;;;;31;15.5;;;;;;;-3.6;81.4;100870;;;;
2023/02/06 05:23:49;;;;;;;31;15.5;;;;;;;-3.7;81.5;100880;;;;
2023/02/06 05:34:49;;;;;;;26.6;17.7;;;;;;;-3.6;81.5;100890;;;;
2023/02/06 05:44:49;;;;;;;26.6;17.7;;;;;;;-3.6;81.5;100890;;;;
2023/02/06 05:55:49;;;;;;;26.6;17.7;;;;;;;-3.5;81.7;100890;;;;
2023/02/06 06:06:49;;;;;;;34.1;21.1;;;;;;;-3.5;81.6;100880;;;;
2023/02/06 06:16:49;;;;;;;34.1;21.1;;;;;;;-3.5;81.7;100880;;;;
2023/02/06 06:27:49;;;;;;;34.1;21.1;;;;;;;-3.6;81.6;100870;;;;
2023/02/06 06:38:49;;;;;;;34;19.7;;;;;;;-3.5;81.6;100870;;;;
2023/02/06 06:48:49;;;;;;;34;19.7;;;;;;;-3.6;80.8;100880;;;;
2023/02/06 06:59:49;;;;;;;34;19.7;;;;;;;-3.6;80.9;100890;;;;
2023/02/06 07:10:49;;;;;;;42.2;22.5;;;;;;;-3.4;80.7;100880;;;;
2023/02/06 07:21:49;;;;;;;42.2;22.5;;;;;;;-3.1;80.2;100880;;;;
2023/02/06 07:32:48;;;;;;;37.3;20.2;;;;;;;-3;79.5;100880;;;;
2023/02/06 07:43:49;;;;;;;37.3;20.2;;;;;;;-2.6;79;100890;;;;
2023/02/06 07:53:48;;;;;;;37.3;20.2;;;;;;;-2.4;77.9;100880;;;;
2023/02/06 08:04:49;;;;;;;27.9;16;;;;;;;-1.8;77.3;100880;;;;
2023/02/06 08:14:48;;;;;;;27.9;16;;;;;;;-1.4;76;100880;;;;
2023/02/06 08:25:49;;;;;;;27.9;16;;;;;;;-1.1;73.9;100870;;;;
2023/02/06 08:35:48;;;;;;;33.4;18.3;;;;;;;-0.7;72.6;100870;;;;
2023/02/06 08:46:49;;;;;;;33.4;18.3;;;;;;;-0.4;70.9;100870;;;;
2023/02/06 08:57:49;;;;;;;33.4;18.3;;;;;;;-0.3;69.8;100870;;;;
2023/02/06 09:08:48;;;;;;;31.4;17;;;;;;;-0.5;68.1;100880;;;;
2023/02/06 09:19:48;;;;;;;31.4;17;;;;;;;-1;67.4;100880;;;;
2023/02/06 09:29:49;;;;;;;31.4;17;;;;;;;-0.7;67.2;100890;;;;
2023/02/06 09:40:48;;;;;;;24.4;14;;;;;;;-0.9;67;100890;;;;
2023/02/06 09:51:48;;;;;;;24.4;14;;;;;;;-0.3;64.8;100890;;;;
2023/02/06 10:01:48;;;;;;;29.5;17.2;;;;;;;-0.5;65.9;100890;;;;
2023/02/06 10:12:48;;;;;;;29.5;17.2;;;;;;;-0.4;65.5;100890;;;;
2023/02/06 10:23:48;;;;;;;29.5;17.2;;;;;;;0.2;63.8;100880;;;;
2023/02/06 10:33:48;;;;;;;25;14.4;;;;;;;-0.1;61.9;100890;;;;
2023/02/06 10:44:49;;;;;;;25;14.4;;;;;;;-0.3;62;100890;;;;
2023/02/06 10:55:48;;;;;;;25;14.4;;;;;;;-0.3;63.1;100880;;;;
2023/02/06 11:06:48;;;;;;;14.1;8;;;;;;;-0.3;63.2;100880;;;;
2023/02/06 11:17:48;;;;;;;14.1;8;;;;;;;-0.7;62.6;100880;;;;
2023/02/06 11:28:48;;;;;;;14.1;8;;;;;;;-0.4;62.9;100870;;;;
2023/02/06 11:38:48;;;;;;;13.1;7.4;;;;;;;-0.6;62.2;100870;;;;
2023/02/06 11:49:48;;;;;;;13.1;7.4;;;;;;;-0.1;61.8;100870;;;;
2023/02/06 11:59:48;;;;;;;13.1;7.4;;;;;;;-0.3;60.8;100870;;;;
2023/02/06 12:09:49;;;;;;;12.4;5.6;;;;;;;-0.3;60.9;100860;;;;
2023/02/06 12:20:48;;;;;;;12.4;5.6;;;;;;;-0.3;60.4;100870;;;;
2023/02/06 12:30:50;;;;;;;11.2;6.2;;;;;;;-0.4;60.2;100870;;;;
2023/02/06 12:40:48;;;;;;;11.2;6.2;;;;;;;-0.6;61.8;100880;;;;
2023/02/06 12:51:48;;;;;;;11.2;6.2;;;;;;;-1.2;63.1;100870;;;;
2023/02/06 13:02:48;;;;;;;15.8;8.3;;;;;;;-1.1;62.9;100880;;;;
2023/02/06 13:12:48;;;;;;;15.8;8.3;;;;;;;-0.7;62.5;100890;;;;
2023/02/06 13:22:49;;;;;;;15.8;8.3;;;;;;;-0.6;61.9;100890;;;;
2023/02/06 13:33:48;;;;;;;12.8;7.1;;;;;;;-1.2;63.3;100890;;;;
2023/02/06 13:43:48;;;;;;;12.8;7.1;;;;;;;-1.1;62.9;100890;;;;
2023/02/06 13:54:49;;;;;;;12.8;7.1;;;;;;;-1.4;63.7;100890;;;;
2023/02/06 14:05:48;;;;;;;11.5;6.4;;;;;;;-1.1;62.3;100900;;;;
2023/02/06 14:15:48;;;;;;;11.5;6.4;;;;;;;-1.2;63.6;100910;;;;
2023/02/06 14:25:48;;;;;;;11.5;6.4;;;;;;;-1.4;63;100920;;;;
2023/02/06 14:35:48;;;;;;;17.7;9.3;;;;;;;-1.5;63.4;100920;;;;
2023/02/06 14:46:48;;;;;;;17.7;9.3;;;;;;;-1.6;64.6;100920;;;;
2023/02/06 14:56:48;;;;;;;17.7;9.3;;;;;;;-2;65.2;100920;;;;
2023/02/06 15:07:48;;;;;;;11.2;7.8;;;;;;;-2.2;65.7;100920;;;;
2023/02/06 15:17:48;;;;;;;11.2;7.8;;;;;;;-2.5;66.5;100920;;;;
2023/02/06 15:28:48;;;;;;;11.2;7.8;;;;;;;-2.7;67;100930;;;;
2023/02/06 15:38:48;;;;;;;12.3;6.7;;;;;;;-2.9;67.5;100920;;;;
2023/02/06 15:49:48;;;;;;;12.3;6.7;;;;;;;-3.3;68.5;100940;;;;
2023/02/06 15:59:48;;;;;;;14.4;8.1;;;;;;;-3.5;68.4;100940;;;;
2023/02/06 16:10:48;;;;;;;14.4;8.1;;;;;;;-3.9;68.7;100950;;;;
2023/02/06 16:20:48;;;;;;;14.4;8.1;;;;;;;-4.3;70;100950;;;;
2023/02/06 16:31:48;;;;;;;17.7;10.3;;;;;;;-4.5;70.8;100960;;;;
2023/02/06 16:41:49;;;;;;;17.7;10.3;;;;;;;-4.8;71.6;100950;;;;
2023/02/06 16:51:48;;;;;;;17.7;10.3;;;;;;;-5.1;72.2;100960;;;;
2023/02/06 17:01:48;;;;;;;41.7;22;;;;;;;-5.4;73.3;100960;;;;
2023/02/06 17:11:48;;;;;;;41.7;22;;;;;;;-5.6;73.8;100970;;;;
2023/02/06 17:22:48;;;;;;;41.7;22;;;;;;;-5.8;74.9;100990;;;;
2023/02/06 17:33:48;;;;;;;62.3;31.1;;;;;;;-5.9;75.6;100970;;;;
2023/02/06 17:43:48;;;;;;;62.3;31.1;;;;;;;-6;75.7;100970;;;;
2023/02/06 17:53:49;;;;;;;62.3;31.1;;;;;;;-6.2;76.8;100970;;;;
2023/02/06 18:04:48;;;;;;;96.9;45.5;;;;;;;-6.3;77.4;100980;;;;
2023/02/06 18:14:48;;;;;;;96.9;45.5;;;;;;;-6.3;77.7;100990;;;;
2023/02/06 18:25:48;;;;;;;96.9;45.5;;;;;;;-6.5;78.3;100990;;;;
2023/02/06 18:35:49;;;;;;;46.2;24;;;;;;;-6.6;78;100990;;;;
2023/02/06 18:46:48;;;;;;;46.2;24;;;;;;;-6.8;78.3;101000;;;;
2023/02/06 18:57:48;;;;;;;46.2;24;;;;;;;-7;78.2;101020;;;;
2023/02/06 19:07:48;;;;;;;50.5;32.4;;;;;;;-7.2;78.3;101010;;;;
2023/02/06 19:17:49;;;;;;;50.5;32.4;;;;;;;-7.4;78.8;101010;;;;
2023/02/06 19:28:48;;;;;;;55.4;36.6;;;;;;;-7.4;79.8;101030;;;;
2023/02/06 19:39:48;;;;;;;55.4;36.6;;;;;;;-7.5;79.7;101020;;;;
2023/02/06 19:49:48;;;;;;;55.4;36.6;;;;;;;-7.6;79.6;101030;;;;
2023/02/06 20:00:48;;;;;;;63.5;37.9;;;;;;;-7.7;79.7;101030;;;;
2023/02/06 20:10:48;;;;;;;63.5;37.9;;;;;;;-7.8;79.9;101030;;;;
2023/02/06 20:20:48;;;;;;;63.5;37.9;;;;;;;-7.8;80.2;101040;;;;
2023/02/06 20:30:48;;;;;;;51.5;30.4;;;;;;;-7.8;79.8;101060;;;;
2023/02/06 20:41:49;;;;;;;51.5;30.4;;;;;;;-8;79.5;101070;;;;
2023/02/06 20:51:48;;;;;;;51.5;30.4;;;;;;;-8.1;79.9;101080;;;;
2023/02/06 21:02:48;;;;;;;46.2;27.6;;;;;;;-8.2;80.5;101080;;;;
2023/02/06 21:12:48;;;;;;;46.2;27.6;;;;;;;-8.3;80.2;101080;;;;
2023/02/06 21:23:48;;;;;;;46.2;27.6;;;;;;;-8.4;80.9;101100;;;;
2023/02/06 21:34:48;;;;;;;45.3;27.6;;;;;;;-8.5;80.4;101120;;;;
2023/02/06 21:44:48;;;;;;;45.3;27.6;;;;;;;-8.6;80.6;101130;;;;
2023/02/06 21:55:48;;;;;;;45.3;27.6;;;;;;;-8.3;81.6;101140;;;;
2023/02/06 22:05:48;;;;;;;89;45.7;;;;;;;-8;81.9;101150;;;;
2023/02/06 22:16:48;;;;;;;89;45.7;;;;;;;-7.5;82.5;101180;;;;
2023/02/06 22:26:48;;;;;;;89;45.7;;;;;;;-7.2;82.3;101200;;;;
2023/02/06 22:36:50;;;;;;;84.5;52.6;;;;;;;-6.8;82.2;101200;;;;
2023/02/06 22:47:48;;;;;;;84.5;52.6;;;;;;;-6.6;82.2;101210;;;;
2023/02/06 22:57:48;;;;;;;84.5;52.6;;;;;;;-6.3;81.7;101190;;;;
2023/02/06 23:07:48;;;;;;;95.7;51;;;;;;;-6.1;81.8;101170;;;;
2023/02/06 23:18:48;;;;;;;95.7;51;;;;;;;-5.9;80.9;101170;;;;
2023/02/06 23:29:48;;;;;;;37.8;21.1;;;;;;;-5.8;80.4;101170;;;;
2023/02/06 23:40:48;;;;;;;37.8;21.1;;;;;;;-6;79.3;101160;;;;
2023/02/06 23:50:48;;;;;;;37.8;21.1;;;;;;;-6;78.9;101140;;;;
